createdAt,value
2022-10-28T00:01:07.986Z,14.68
2022-10-28T00:03:39.545Z,14.63
2022-10-28T00:06:09.654Z,14.63
2022-10-28T00:08:37.657Z,14.58
2022-10-28T00:11:07.438Z,14.50
2022-10-28T00:13:37.968Z,14.43
2022-10-28T00:16:09.274Z,14.20
2022-10-28T00:18:37.298Z,14.15
2022-10-28T00:21:07.167Z,14.27
2022-10-28T00:23:35.538Z,14.29
2022-10-28T00:26:08.117Z,14.18
2022-10-28T00:28:35.923Z,14.27
2022-10-28T00:31:10.288Z,14.14
2022-10-28T00:33:38.246Z,14.30
2022-10-28T00:36:11.683Z,14.42
2022-10-28T00:38:39.950Z,14.53
2022-10-28T00:41:08.541Z,14.48
2022-10-28T00:43:38.354Z,14.44
2022-10-28T00:46:13.910Z,14.37
2022-10-28T00:48:44.682Z,14.36
2022-10-28T00:51:12.695Z,14.37
2022-10-28T00:53:42.210Z,14.36
2022-10-28T00:56:11.083Z,14.33
2022-10-28T00:58:39.047Z,14.38
2022-10-28T01:01:06.882Z,14.38
2022-10-28T01:03:37.713Z,14.48
2022-10-28T01:06:06.536Z,14.47
2022-10-28T01:08:34.425Z,14.46
2022-10-28T01:11:27.643Z,14.35
2022-10-28T01:14:10.940Z,14.35
2022-10-28T01:16:47.874Z,14.50
2022-10-28T01:19:54.331Z,14.40
2022-10-28T01:22:26.803Z,14.34
2022-10-28T01:25:15.557Z,14.43
2022-10-28T01:28:29.497Z,14.44
2022-10-28T01:31:16.742Z,14.54
2022-10-28T01:33:53.464Z,14.55
2022-10-28T01:36:33.515Z,14.55
2022-10-28T01:39:10.569Z,14.28
2022-10-28T01:41:48.545Z,14.15
2022-10-28T01:44:25.928Z,14.57
2022-10-28T01:47:01.158Z,14.46
2022-10-28T01:49:34.813Z,14.72
2022-10-28T01:52:06.092Z,14.81
2022-10-28T01:54:35.715Z,14.82
2022-10-28T01:57:06.032Z,14.88
2022-10-28T01:59:35.592Z,14.98
2022-10-28T02:02:04.858Z,14.77
2022-10-28T02:04:32.658Z,14.97
2022-10-28T02:07:01.858Z,14.98
2022-10-28T02:09:42.216Z,14.89
2022-10-28T02:12:21.801Z,14.94
2022-10-28T02:15:14.970Z,14.99
2022-10-28T02:17:57.834Z,14.82
2022-10-28T02:20:35.693Z,14.88
2022-10-28T02:23:16.465Z,14.99
2022-10-28T02:25:52.419Z,14.92
2022-10-28T02:28:25.840Z,14.90
2022-10-28T02:31:00.209Z,14.74
2022-10-28T02:33:33.580Z,14.92
2022-10-28T02:36:05.877Z,14.78
2022-10-28T02:38:37.345Z,15.03
2022-10-28T02:41:10.431Z,14.90
2022-10-28T02:43:39.781Z,14.80
2022-10-28T02:46:09.291Z,15.05
2022-10-28T02:48:43.941Z,15.05
2022-10-28T02:51:15.093Z,14.98
2022-10-28T02:53:53.931Z,15.07
2022-10-28T02:56:22.943Z,15.11
2022-10-28T02:58:51.014Z,15.18
2022-10-28T03:01:18.885Z,15.12
2022-10-28T03:03:48.070Z,15.12
2022-10-28T03:06:15.924Z,14.82
2022-10-28T03:08:43.730Z,15.04
2022-10-28T03:11:11.594Z,14.90
2022-10-28T03:13:39.385Z,14.89
2022-10-28T03:16:07.339Z,15.03
2022-10-28T03:18:35.090Z,15.10
2022-10-28T03:21:04.347Z,14.86
2022-10-28T03:23:32.203Z,14.98
2022-10-28T03:26:00.080Z,14.88
2022-10-28T03:28:27.898Z,14.92
2022-10-28T03:30:55.771Z,15.01
2022-10-28T03:33:23.571Z,14.99
2022-10-28T03:35:51.420Z,14.79
2022-10-28T03:38:20.538Z,15.13
2022-10-28T03:40:48.979Z,15.18
2022-10-28T03:43:16.971Z,15.05
2022-10-28T03:45:45.454Z,14.88
2022-10-28T03:48:13.289Z,15.25
2022-10-28T03:50:41.187Z,15.36
2022-10-28T03:53:09.175Z,15.52
2022-10-28T03:55:38.361Z,15.53
2022-10-28T03:58:06.115Z,15.41
2022-10-28T04:00:33.971Z,15.27
2022-10-28T04:03:01.781Z,15.24
2022-10-28T04:05:29.628Z,15.22
2022-10-28T04:07:57.346Z,15.32
2022-10-28T04:10:25.189Z,15.23
2022-10-28T04:12:54.607Z,15.27
2022-10-28T04:15:22.517Z,15.33
2022-10-28T04:17:50.301Z,15.38
2022-10-28T04:20:18.129Z,15.48
2022-10-28T04:22:45.861Z,15.44
2022-10-28T04:27:46.488Z,15.46
2022-10-28T04:30:16.330Z,15.70
2022-10-28T04:32:45.191Z,15.71
2022-10-28T04:35:14.160Z,15.49
2022-10-28T04:37:42.485Z,15.34
2022-10-28T04:40:10.916Z,15.52
2022-10-28T04:42:38.799Z,15.46
2022-10-28T04:45:07.847Z,15.38
2022-10-28T04:47:36.977Z,15.33
2022-10-28T04:50:05.625Z,15.29
2022-10-28T04:52:33.408Z,15.20
2022-10-28T04:55:01.264Z,15.39
2022-10-28T04:57:29.172Z,15.44
2022-10-28T04:59:56.936Z,15.46
2022-10-28T05:02:24.922Z,15.41
2022-10-28T05:04:54.166Z,15.24
2022-10-28T05:07:23.571Z,14.98
2022-10-28T05:09:51.464Z,15.15
2022-10-28T05:12:19.303Z,15.17
2022-10-28T05:14:48.991Z,14.99
2022-10-28T05:17:18.985Z,15.02
2022-10-28T05:19:46.717Z,15.18
2022-10-28T05:22:15.817Z,15.18
2022-10-28T05:24:43.623Z,15.36
2022-10-28T05:27:12.506Z,15.26
2022-10-28T05:29:40.274Z,15.09
2022-10-28T05:32:08.084Z,15.08
2022-10-28T05:34:36.207Z,15.02
2022-10-28T05:37:04.069Z,15.06
2022-10-28T05:39:33.212Z,15.15
2022-10-28T05:42:01.050Z,15.13
2022-10-28T05:44:28.818Z,14.89
2022-10-28T05:46:56.558Z,15.07
2022-10-28T05:49:24.389Z,14.85
2022-10-28T05:51:52.155Z,14.79
2022-10-28T05:54:20.217Z,14.72
2022-10-28T05:56:49.584Z,14.72
2022-10-28T05:59:17.425Z,14.73
2022-10-28T06:01:45.267Z,14.67
2022-10-28T06:04:13.085Z,14.68
2022-10-28T06:06:40.932Z,14.65
2022-10-28T06:09:08.750Z,14.66
2022-10-28T06:11:35.305Z,14.64
2022-10-28T06:14:04.433Z,14.72
2022-10-28T06:16:32.367Z,14.67
2022-10-28T06:19:00.400Z,14.71
2022-10-28T06:21:28.137Z,14.72
2022-10-28T06:23:55.909Z,14.82
2022-10-28T06:26:23.743Z,14.74
2022-10-28T06:28:51.511Z,15.09
2022-10-28T06:31:20.610Z,15.21
2022-10-28T06:33:48.409Z,15.02
2022-10-28T06:36:16.453Z,15.29
2022-10-28T06:38:44.227Z,15.34
2022-10-28T06:41:12.085Z,15.41
2022-10-28T06:43:40.011Z,15.42
2022-10-28T06:46:07.776Z,15.55
2022-10-28T06:48:38.430Z,15.64
2022-10-28T06:51:06.669Z,15.63
2022-10-28T06:53:34.386Z,15.79
2022-10-28T06:56:02.310Z,15.82
2022-10-28T06:58:30.088Z,15.86
2022-10-28T07:00:57.987Z,15.89
2022-10-28T07:03:25.781Z,15.84
2022-10-28T07:05:56.131Z,15.92
2022-10-28T07:08:24.013Z,16.05
2022-10-28T07:10:56.341Z,16.31
2022-10-28T07:13:24.490Z,16.39
2022-10-28T07:15:59.696Z,16.38
2022-10-28T07:18:29.839Z,16.25
2022-10-28T07:21:01.086Z,16.16
2022-10-28T07:23:31.452Z,16.14
2022-10-28T07:25:59.525Z,15.95
2022-10-28T07:28:28.161Z,16.30
2022-10-28T07:30:56.420Z,16.41
2022-10-28T07:33:24.354Z,16.44
2022-10-28T07:35:52.150Z,16.33
2022-10-28T07:38:21.317Z,16.37
2022-10-28T07:40:49.232Z,16.46
2022-10-28T07:43:17.092Z,16.66
2022-10-28T07:45:45.002Z,16.76
2022-10-28T07:48:12.865Z,16.81
2022-10-28T07:50:41.355Z,16.93
2022-10-28T07:53:09.289Z,17.03
2022-10-28T07:55:38.733Z,17.19
2022-10-28T07:58:06.719Z,17.27
2022-10-28T08:00:34.920Z,17.14
2022-10-28T08:03:03.720Z,17.28
2022-10-28T08:05:31.508Z,17.54
2022-10-28T08:07:59.257Z,17.81
2022-10-28T08:10:27.748Z,17.95
2022-10-28T08:12:58.873Z,17.90
2022-10-28T08:15:27.288Z,17.97
2022-10-28T08:17:55.678Z,18.04
2022-10-28T08:20:24.520Z,18.08
2022-10-28T08:22:52.698Z,17.59
2022-10-28T08:25:20.869Z,17.80
2022-10-28T08:27:48.591Z,18.15
2022-10-28T08:30:18.493Z,18.40
2022-10-28T08:32:46.325Z,18.31
2022-10-28T08:35:14.430Z,18.54
2022-10-28T08:37:46.018Z,18.70
2022-10-28T08:40:14.687Z,18.84
2022-10-28T08:42:47.407Z,18.94
2022-10-28T08:45:41.636Z,19.05
2022-10-28T08:48:20.083Z,19.21
2022-10-28T08:50:53.201Z,19.41
2022-10-28T08:53:25.734Z,19.52
2022-10-28T08:55:59.553Z,19.57
2022-10-28T08:58:33.205Z,19.59
2022-10-28T09:01:02.768Z,19.55
2022-10-28T09:03:36.768Z,19.11
2022-10-28T09:06:08.937Z,19.06
2022-10-28T09:08:39.789Z,19.31
2022-10-28T09:11:38.350Z,19.53
2022-10-28T09:14:22.082Z,19.63
2022-10-28T09:16:58.561Z,19.52
2022-10-28T09:19:40.952Z,19.34
2022-10-28T09:22:21.794Z,19.30
2022-10-28T09:24:54.570Z,19.43
2022-10-28T09:27:53.739Z,19.86
2022-10-28T09:30:33.735Z,19.73
2022-10-28T09:33:14.384Z,20.00
2022-10-28T09:35:44.293Z,19.87
2022-10-28T09:38:19.328Z,19.92
2022-10-28T09:40:54.075Z,20.32
2022-10-28T09:43:27.930Z,20.86
2022-10-28T09:46:01.321Z,20.61
2022-10-28T09:48:33.981Z,21.08
2022-10-28T09:51:02.110Z,21.21
2022-10-28T09:53:42.839Z,21.00
2022-10-28T09:56:12.007Z,20.60
2022-10-28T09:58:45.935Z,20.62
2022-10-28T10:01:14.569Z,21.17
2022-10-28T10:03:45.120Z,20.03
2022-10-28T10:06:16.516Z,20.64
2022-10-28T10:08:45.123Z,20.42
2022-10-28T10:11:22.820Z,20.86
2022-10-28T10:13:51.159Z,20.63
2022-10-28T10:16:25.221Z,20.84
2022-10-28T10:18:58.749Z,20.99
2022-10-28T10:21:42.497Z,21.50
2022-10-28T10:24:33.623Z,21.06
2022-10-28T10:27:04.924Z,21.31
2022-10-28T10:29:33.276Z,21.25
2022-10-28T10:32:16.910Z,21.49
2022-10-28T10:34:57.613Z,21.60
2022-10-28T10:37:25.559Z,21.50
2022-10-28T10:40:16.350Z,21.77
2022-10-28T10:42:57.358Z,21.58
2022-10-28T10:45:32.513Z,21.31
2022-10-28T10:48:12.696Z,21.86
2022-10-28T10:50:43.159Z,22.21
2022-10-28T10:53:21.081Z,22.03
2022-10-28T10:55:55.431Z,22.26
2022-10-28T10:58:25.710Z,21.74
2022-10-28T11:00:55.697Z,21.89
2022-10-28T11:03:28.415Z,21.92
2022-10-28T11:06:22.148Z,21.87
2022-10-28T11:08:48.146Z,22.32
2022-10-28T11:11:20.677Z,22.61
2022-10-28T11:13:50.277Z,22.78
2022-10-28T11:16:20.702Z,22.36
2022-10-28T11:18:51.689Z,22.59
2022-10-28T11:21:37.476Z,22.80
2022-10-28T11:24:21.269Z,22.22
2022-10-28T11:26:56.521Z,22.87
2022-10-28T11:29:25.569Z,22.46
2022-10-28T11:32:11.518Z,23.08
2022-10-28T11:34:56.815Z,23.08
2022-10-28T11:37:36.486Z,22.69
2022-10-28T11:40:14.407Z,22.45
2022-10-28T11:42:53.248Z,22.97
2022-10-28T11:45:28.023Z,23.30
2022-10-28T11:48:12.224Z,23.12
2022-10-28T11:50:50.207Z,23.60
2022-10-28T11:53:52.503Z,23.81
2022-10-28T11:56:32.175Z,24.06
2022-10-28T11:59:23.244Z,23.56
2022-10-28T12:01:59.975Z,23.82
2022-10-28T12:04:48.677Z,23.88
2022-10-28T12:07:35.572Z,23.70
2022-10-28T12:10:20.434Z,23.95
2022-10-28T12:12:57.734Z,24.04
2022-10-28T12:15:35.949Z,23.97
2022-10-28T12:18:10.698Z,23.65
2022-10-28T12:20:47.937Z,23.65
2022-10-28T12:23:19.787Z,23.97
2022-10-28T12:25:52.796Z,24.00
2022-10-28T12:28:23.869Z,24.25
2022-10-28T12:30:53.720Z,24.28
2022-10-28T12:33:26.602Z,23.80
2022-10-28T12:36:01.762Z,23.75
2022-10-28T12:38:35.720Z,23.89
2022-10-28T12:41:12.800Z,23.85
2022-10-28T12:43:45.201Z,24.02
2022-10-28T12:46:21.416Z,24.10
2022-10-28T12:48:56.114Z,24.09
2022-10-28T12:51:31.505Z,23.94
2022-10-28T12:54:04.392Z,24.07
2022-10-28T12:56:38.573Z,24.34
2022-10-28T12:59:12.966Z,24.56
2022-10-28T13:01:42.167Z,24.47
2022-10-28T13:04:13.478Z,24.39
2022-10-28T13:07:07.702Z,24.35
2022-10-28T13:09:46.155Z,24.13
2022-10-28T13:12:47.085Z,24.11
2022-10-28T13:15:40.688Z,24.50
2022-10-28T13:18:31.101Z,24.81
2022-10-28T13:21:12.230Z,24.43
2022-10-28T13:23:46.255Z,24.58
2022-10-28T13:26:23.496Z,25.13
2022-10-28T13:28:55.344Z,25.23
2022-10-28T13:31:23.680Z,25.22
2022-10-28T13:33:58.024Z,24.78
2022-10-28T13:36:32.563Z,25.20
2022-10-28T13:39:04.504Z,25.08
2022-10-28T13:41:42.238Z,24.99
2022-10-28T13:44:29.303Z,25.12
2022-10-28T13:47:26.223Z,25.08
2022-10-28T13:50:26.118Z,24.70
2022-10-28T13:53:39.924Z,25.46
2022-10-28T13:56:23.150Z,25.45
2022-10-28T13:58:53.581Z,25.55
2022-10-28T14:02:33.171Z,25.78
2022-10-28T14:05:00.514Z,25.16
2022-10-28T14:07:31.601Z,25.31
2022-10-28T14:10:23.512Z,25.40
2022-10-28T14:12:54.915Z,25.32
2022-10-28T14:15:27.040Z,24.69
2022-10-28T14:18:10.255Z,24.21
2022-10-28T14:20:59.023Z,24.50
2022-10-28T14:24:06.760Z,24.52
2022-10-28T14:27:22.931Z,24.53
2022-10-28T14:30:05.146Z,24.33
2022-10-28T14:32:43.660Z,24.34
2022-10-28T14:35:24.803Z,24.30
2022-10-28T14:38:18.319Z,24.55
2022-10-28T14:40:50.777Z,24.55
2022-10-28T14:43:43.225Z,24.55
2022-10-28T14:46:30.746Z,24.54
2022-10-28T14:49:00.575Z,24.30
2022-10-28T14:51:38.815Z,24.10
2022-10-28T14:54:16.096Z,24.04
2022-10-28T14:56:44.748Z,24.20
2022-10-28T14:59:32.638Z,23.62
2022-10-28T15:02:05.202Z,23.76
2022-10-28T15:04:33.492Z,23.91
2022-10-28T15:07:03.546Z,23.93
2022-10-28T15:09:34.942Z,23.93
2022-10-28T15:12:06.821Z,23.39
2022-10-28T15:14:37.509Z,23.30
2022-10-28T15:17:16.682Z,23.47
2022-10-28T15:19:45.525Z,23.30
2022-10-28T15:22:18.168Z,23.45
2022-10-28T15:24:55.454Z,23.38
2022-10-28T15:27:25.693Z,23.06
2022-10-28T15:29:54.077Z,22.96
2022-10-28T15:32:30.818Z,23.27
2022-10-28T15:34:58.959Z,22.98
2022-10-28T15:37:29.929Z,23.16
2022-10-28T15:40:14.256Z,23.00
2022-10-28T15:42:45.761Z,22.97
2022-10-28T15:45:19.634Z,22.78
2022-10-28T15:47:48.462Z,22.80
2022-10-28T15:50:33.074Z,22.71
2022-10-28T15:53:32.148Z,22.58
2022-10-28T15:56:18.449Z,22.76
2022-10-28T15:58:48.376Z,22.71
2022-10-28T16:01:31.677Z,22.69
2022-10-28T16:04:00.227Z,22.61
2022-10-28T16:06:31.602Z,22.43
2022-10-28T16:09:03.849Z,22.15
2022-10-28T16:11:32.999Z,21.98
2022-10-28T16:14:21.749Z,21.77
2022-10-28T16:16:49.999Z,21.69
2022-10-28T16:19:28.343Z,21.75
2022-10-28T16:21:56.492Z,21.47
2022-10-28T16:24:25.809Z,21.19
2022-10-28T16:26:53.793Z,21.18
2022-10-28T16:29:21.554Z,21.09
2022-10-28T16:31:52.896Z,21.07
2022-10-28T16:34:20.711Z,21.10
2022-10-28T16:36:48.675Z,20.97
2022-10-28T16:39:16.597Z,20.92
2022-10-28T16:41:45.792Z,20.78
2022-10-28T16:44:19.168Z,20.82
2022-10-28T16:46:46.969Z,20.90
2022-10-28T16:49:14.935Z,20.94
2022-10-28T16:51:42.714Z,20.81
2022-10-28T16:54:11.374Z,20.67
2022-10-28T16:56:39.163Z,20.80
2022-10-28T16:59:08.510Z,20.83
2022-10-28T17:01:36.521Z,20.83
2022-10-28T17:04:04.624Z,20.62
2022-10-28T17:06:32.483Z,20.52
2022-10-28T17:09:03.289Z,20.50
2022-10-28T17:14:00.016Z,20.26
2022-10-28T17:16:29.217Z,20.13
2022-10-28T17:18:57.323Z,19.95
2022-10-28T17:21:28.694Z,19.91
2022-10-28T17:23:56.432Z,20.00
2022-10-28T17:26:24.308Z,19.95
2022-10-28T17:28:52.961Z,19.89
2022-10-28T17:31:24.783Z,19.85
2022-10-28T17:33:57.901Z,19.74
2022-10-28T17:36:25.815Z,19.76
2022-10-28T17:38:53.759Z,19.50
2022-10-28T17:41:21.688Z,19.57
2022-10-28T17:43:52.907Z,19.60
2022-10-28T17:46:21.176Z,19.71
2022-10-28T17:48:49.490Z,19.46
2022-10-28T17:51:20.841Z,19.20
2022-10-28T17:53:53.674Z,19.00
2022-10-28T17:56:21.591Z,19.02
2022-10-28T17:58:49.813Z,18.74
2022-10-28T18:01:18.090Z,18.87
2022-10-28T18:03:46.083Z,18.79
2022-10-28T18:06:14.181Z,18.76
2022-10-28T18:08:44.739Z,18.73
2022-10-28T18:11:20.921Z,18.88
2022-10-28T18:13:52.842Z,18.81
2022-10-28T18:16:24.195Z,18.96
2022-10-28T18:18:53.864Z,19.00
2022-10-28T18:21:22.938Z,19.07
2022-10-28T18:23:54.436Z,19.03
2022-10-28T18:26:24.440Z,18.99
2022-10-28T18:28:52.289Z,18.87
2022-10-28T18:31:21.369Z,19.01
2022-10-28T18:33:49.280Z,19.03
2022-10-28T18:36:19.322Z,18.98
2022-10-28T18:38:50.139Z,18.93
2022-10-28T18:41:20.732Z,18.83
2022-10-28T18:43:48.882Z,18.71
2022-10-28T18:46:17.407Z,18.63
2022-10-28T18:48:45.266Z,18.58
2022-10-28T18:51:13.984Z,18.54
2022-10-28T18:53:43.753Z,18.47
2022-10-28T18:56:13.692Z,18.29
2022-10-28T18:58:43.294Z,18.39
2022-10-28T19:01:13.521Z,18.39
2022-10-28T19:03:42.392Z,18.50
2022-10-28T19:06:11.788Z,18.55
2022-10-28T19:08:40.930Z,18.63
2022-10-28T19:11:11.267Z,18.67
2022-10-28T19:13:40.866Z,18.60
2022-10-28T19:18:40.549Z,18.53
2022-10-28T19:21:11.372Z,18.40
2022-10-28T19:23:39.646Z,18.51
2022-10-28T19:26:08.292Z,18.46
2022-10-28T19:28:40.138Z,18.60
2022-10-28T19:31:11.832Z,18.54
2022-10-28T19:33:39.964Z,18.61
2022-10-28T19:36:11.248Z,18.63
2022-10-28T19:38:39.697Z,18.48
2022-10-28T19:41:10.084Z,18.58
2022-10-28T19:43:38.271Z,18.54
2022-10-28T19:46:08.512Z,18.68
2022-10-28T19:48:38.181Z,18.71
2022-10-28T19:51:06.111Z,18.92
2022-10-28T19:53:34.120Z,18.98
2022-10-28T19:56:04.288Z,19.24
2022-10-28T19:58:33.311Z,19.30
2022-10-28T20:01:03.460Z,19.24
2022-10-28T20:03:34.538Z,19.14
2022-10-28T20:06:07.836Z,19.03
2022-10-28T20:08:36.580Z,18.99
2022-10-28T20:11:07.000Z,18.87
2022-10-28T20:13:35.784Z,18.97
2022-10-28T20:16:05.715Z,19.05
2022-10-28T20:18:34.550Z,18.93
2022-10-28T20:21:10.752Z,18.66
2022-10-28T20:23:39.045Z,18.42
2022-10-28T20:26:08.404Z,18.16
2022-10-28T20:28:36.871Z,18.09
2022-10-28T20:31:10.935Z,18.16
2022-10-28T20:33:41.329Z,17.83
2022-10-28T20:36:23.363Z,17.96
2022-10-28T20:38:54.349Z,17.71
2022-10-28T20:41:25.713Z,17.75
2022-10-28T20:43:54.809Z,17.63
2022-10-28T20:46:23.313Z,17.34
2022-10-28T20:48:54.114Z,17.16
2022-10-28T20:51:25.225Z,17.28
2022-10-28T20:53:53.224Z,17.40
2022-10-28T20:56:23.749Z,17.36
2022-10-28T20:58:52.081Z,17.10
2022-10-28T21:01:21.802Z,17.12
2022-10-28T21:03:50.761Z,17.04
2022-10-28T21:06:18.964Z,17.02
2022-10-28T21:08:48.503Z,16.87
2022-10-28T21:11:17.949Z,16.92
2022-10-28T21:13:51.817Z,16.74
2022-10-28T21:16:19.806Z,16.72
2022-10-28T21:18:47.880Z,16.60
2022-10-28T21:21:16.448Z,16.69
2022-10-28T21:23:44.673Z,16.64
2022-10-28T21:26:14.311Z,16.59
2022-10-28T21:28:42.397Z,16.71
2022-10-28T21:31:12.502Z,16.59
2022-10-28T21:33:41.060Z,16.23
2022-10-28T21:36:12.308Z,16.15
2022-10-28T21:38:40.364Z,16.09
2022-10-28T21:41:10.979Z,16.13
2022-10-28T21:43:43.060Z,16.06
2022-10-28T21:46:11.433Z,16.07
2022-10-28T21:48:39.389Z,16.15
2022-10-28T21:51:11.831Z,16.08
2022-10-28T21:53:45.927Z,16.04
2022-10-28T21:56:18.307Z,16.00
2022-10-28T21:58:49.890Z,15.90
2022-10-28T22:01:20.689Z,15.88
2022-10-28T22:03:49.071Z,15.82
2022-10-28T22:06:17.066Z,15.83
2022-10-28T22:08:46.805Z,15.81
2022-10-28T22:11:16.484Z,15.94
2022-10-28T22:13:44.701Z,15.84
2022-10-28T22:16:15.345Z,15.70
2022-10-28T22:18:43.856Z,15.65
2022-10-28T22:21:13.940Z,15.93
2022-10-28T22:23:41.828Z,15.70
2022-10-28T22:26:11.662Z,15.73
2022-10-28T22:28:39.853Z,15.67
2022-10-28T22:31:09.457Z,15.56
2022-10-28T22:33:39.375Z,15.49
2022-10-28T22:36:09.749Z,15.53
2022-10-28T22:38:37.666Z,15.59
2022-10-28T22:41:07.615Z,15.55
2022-10-28T22:43:36.070Z,15.57
2022-10-28T22:46:04.390Z,15.53
2022-10-28T22:48:33.482Z,15.46
2022-10-28T22:51:03.519Z,15.42
2022-10-28T22:53:31.594Z,15.43
2022-10-28T22:56:01.033Z,15.35
2022-10-28T22:58:29.231Z,15.30
2022-10-28T23:01:06.005Z,15.19
2022-10-28T23:03:36.545Z,15.12
2022-10-28T23:06:06.369Z,15.06
2022-10-28T23:08:34.586Z,15.03
2022-10-28T23:11:02.387Z,15.04
2022-10-28T23:13:30.485Z,14.91
2022-10-28T23:16:03.049Z,14.99
2022-10-28T23:18:30.994Z,14.98
2022-10-28T23:21:06.284Z,14.94
2022-10-28T23:23:34.197Z,14.92
2022-10-28T23:26:02.065Z,14.82
2022-10-28T23:28:29.935Z,14.81
2022-10-28T23:31:00.862Z,14.81
2022-10-28T23:33:30.151Z,14.72
2022-10-28T23:35:58.561Z,14.69
2022-10-28T23:38:28.203Z,14.71
2022-10-28T23:41:00.698Z,14.75
2022-10-28T23:43:29.007Z,14.55
2022-10-28T23:45:57.340Z,14.59
2022-10-28T23:48:26.290Z,14.71
2022-10-28T23:50:54.396Z,14.89
2022-10-28T23:53:22.911Z,14.92
2022-10-28T23:55:52.944Z,14.92
2022-10-28T23:58:22.432Z,15.01
